createdAt,value
2023-02-22T00:00:59.873Z,10.60
2023-02-22T00:03:32.477Z,10.50
2023-02-22T00:06:07.033Z,10.50
2023-02-22T00:08:36.784Z,10.50
2023-02-22T00:11:10.302Z,10.50
2023-02-22T00:13:38.589Z,10.50
2023-02-22T00:16:06.944Z,10.50
2023-02-22T00:18:34.462Z,10.50
2023-02-22T00:21:02.032Z,10.50
2023-02-22T00:23:31.862Z,10.40
2023-02-22T00:26:00.387Z,10.40
2023-02-22T00:28:28.163Z,10.40
2023-02-22T00:30:56.033Z,10.40
2023-02-22T00:33:23.925Z,10.50
2023-02-22T00:35:51.447Z,10.50
2023-02-22T00:38:19.732Z,10.40
2023-02-22T00:40:47.151Z,10.50
2023-02-22T00:43:15.335Z,10.50
2023-02-22T00:45:43.057Z,10.50
2023-02-22T00:48:11.037Z,10.50
2023-02-22T00:50:38.588Z,10.50
2023-02-22T00:53:07.729Z,10.50
2023-02-22T00:55:37.830Z,10.50
2023-02-22T00:58:06.821Z,10.40
2023-02-22T01:00:37.374Z,10.50
2023-02-22T01:03:06.587Z,10.50
2023-02-22T01:05:35.528Z,10.50
2023-02-22T01:08:06.660Z,10.40
2023-02-22T01:10:35.606Z,10.50
2023-02-22T01:13:08.677Z,10.50
2023-02-22T01:15:39.022Z,10.50
2023-02-22T01:18:07.054Z,10.50
2023-02-22T01:20:34.578Z,10.50
2023-02-22T01:23:03.697Z,10.50
2023-02-22T01:25:32.070Z,10.50
2023-02-22T01:28:01.107Z,10.50
2023-02-22T01:30:32.991Z,10.50
2023-02-22T01:33:01.738Z,10.50
2023-02-22T01:35:32.844Z,10.50
2023-02-22T01:38:00.276Z,10.50
2023-02-22T01:40:32.503Z,10.40
2023-02-22T01:43:02.085Z,10.40
2023-02-22T01:45:35.169Z,10.50
2023-02-22T01:48:08.687Z,10.50
2023-02-22T01:50:40.741Z,10.50
2023-02-22T01:53:10.980Z,10.60
2023-02-22T01:55:41.801Z,10.60
2023-02-22T01:58:10.180Z,10.60
2023-02-22T02:00:39.987Z,10.60
2023-02-22T02:03:27.427Z,10.60
2023-02-22T02:05:59.962Z,10.60
2023-02-22T02:08:38.639Z,10.60
2023-02-22T02:11:09.308Z,10.60
2023-02-22T02:13:37.672Z,10.60
2023-02-22T02:16:05.405Z,10.60
2023-02-22T02:18:32.943Z,10.60
2023-02-22T02:21:09.154Z,10.60
2023-02-22T02:24:15.877Z,10.60
2023-02-22T02:27:09.217Z,10.60
2023-02-22T02:29:55.052Z,10.60
2023-02-22T02:32:34.339Z,10.60
2023-02-22T02:35:16.741Z,10.60
2023-02-22T02:37:50.314Z,10.70
2023-02-22T02:40:47.380Z,10.60
2023-02-22T02:43:26.381Z,10.60
2023-02-22T02:46:11.767Z,10.60
2023-02-22T02:48:43.640Z,10.60
2023-02-22T02:51:14.402Z,10.70
2023-02-22T02:53:45.592Z,10.60
2023-02-22T02:56:13.086Z,10.60
2023-02-22T02:58:51.012Z,10.70
2023-02-22T03:01:57.049Z,10.60
2023-02-22T03:04:33.360Z,10.60
2023-02-22T03:07:24.078Z,10.60
2023-02-22T03:10:17.806Z,10.60
2023-02-22T03:12:48.250Z,10.50
2023-02-22T03:15:36.900Z,10.60
2023-02-22T03:18:07.575Z,10.60
2023-02-22T03:20:43.520Z,10.60
2023-02-22T03:23:25.371Z,10.50
2023-02-22T03:26:03.296Z,10.50
2023-02-22T03:28:34.071Z,10.50
2023-02-22T03:31:13.993Z,10.50
2023-02-22T03:34:08.894Z,10.50
2023-02-22T03:36:42.797Z,10.50
2023-02-22T03:39:16.124Z,10.60
2023-02-22T03:41:51.472Z,10.70
2023-02-22T03:44:27.249Z,10.70
2023-02-22T03:46:57.843Z,10.70
2023-02-22T03:49:40.290Z,10.80
2023-02-22T03:52:09.057Z,10.80
2023-02-22T03:54:39.064Z,10.80
2023-02-22T03:57:26.841Z,10.80
2023-02-22T04:00:07.271Z,10.70
2023-02-22T04:02:41.236Z,10.60
2023-02-22T04:05:14.221Z,10.60
2023-02-22T04:07:43.089Z,10.60
2023-02-22T04:10:13.992Z,10.60
2023-02-22T04:12:41.473Z,10.50
2023-02-22T04:15:11.784Z,10.50
2023-02-22T04:17:39.242Z,10.50
2023-02-22T04:20:07.314Z,10.50
2023-02-22T04:22:43.814Z,10.50
2023-02-22T04:25:11.358Z,10.50
2023-02-22T04:27:38.798Z,10.50
2023-02-22T04:30:06.917Z,10.50
2023-02-22T04:32:36.228Z,10.50
2023-02-22T04:35:04.828Z,10.50
2023-02-22T04:37:34.780Z,10.50
2023-02-22T04:40:10.646Z,10.50
2023-02-22T04:42:39.137Z,10.50
2023-02-22T04:45:08.445Z,10.50
2023-02-22T04:47:37.266Z,10.40
2023-02-22T04:50:07.518Z,10.30
2023-02-22T04:52:35.264Z,10.30
2023-02-22T04:55:03.252Z,10.30
2023-02-22T04:57:30.801Z,10.30
2023-02-22T04:59:59.141Z,10.30
2023-02-22T05:02:27.158Z,10.40
2023-02-22T05:04:54.617Z,10.50
2023-02-22T05:07:22.064Z,10.50
2023-02-22T05:09:49.843Z,10.40
2023-02-22T05:12:17.260Z,10.40
2023-02-22T05:14:44.677Z,10.40
2023-02-22T05:17:12.230Z,10.30
2023-02-22T05:19:39.719Z,10.30
2023-02-22T05:22:07.070Z,10.40
2023-02-22T05:24:35.067Z,10.50
2023-02-22T05:27:02.480Z,10.40
2023-02-22T05:29:29.877Z,10.40
2023-02-22T05:31:58.370Z,10.40
2023-02-22T05:34:25.755Z,10.40
2023-02-22T05:36:53.165Z,10.30
2023-02-22T05:39:20.592Z,10.30
2023-02-22T05:41:48.065Z,10.30
2023-02-22T05:44:15.464Z,10.30
2023-02-22T05:46:42.855Z,10.30
2023-02-22T05:49:10.289Z,10.30
2023-02-22T05:51:37.824Z,10.40
2023-02-22T05:54:05.265Z,10.40
2023-02-22T05:56:32.670Z,10.40
2023-02-22T05:59:00.208Z,10.40
2023-02-22T06:01:28.029Z,10.40
2023-02-22T06:03:55.501Z,10.40
2023-02-22T06:06:22.902Z,10.40
2023-02-22T06:08:50.337Z,10.40
2023-02-22T06:11:19.786Z,10.40
2023-02-22T06:13:52.088Z,10.40
2023-02-22T06:16:22.412Z,10.40
2023-02-22T06:18:50.352Z,10.40
2023-02-22T06:21:18.231Z,10.40
2023-02-22T06:23:45.750Z,10.50
2023-02-22T06:26:16.784Z,10.50
2023-02-22T06:28:46.133Z,10.40
2023-02-22T06:31:13.515Z,10.40
2023-02-22T06:33:40.938Z,10.40
2023-02-22T06:36:09.028Z,10.40
2023-02-22T06:38:36.386Z,10.40
2023-02-22T06:41:03.843Z,10.40
2023-02-22T06:43:31.502Z,10.40
2023-02-22T06:45:59.069Z,10.40
2023-02-22T06:48:26.443Z,10.40
2023-02-22T06:50:53.804Z,10.50
2023-02-22T06:53:21.161Z,10.50
2023-02-22T06:55:48.508Z,10.50
2023-02-22T06:58:16.047Z,10.50
2023-02-22T07:00:43.454Z,10.50
2023-02-22T07:03:11.773Z,10.50
2023-02-22T07:05:39.143Z,10.60
2023-02-22T07:08:07.684Z,10.70
2023-02-22T07:10:36.690Z,10.80
2023-02-22T07:13:06.515Z,10.90
2023-02-22T07:15:35.376Z,10.80
2023-02-22T07:18:03.132Z,10.80
2023-02-22T07:20:31.931Z,10.80
2023-02-22T07:22:59.984Z,10.80
2023-02-22T07:25:27.408Z,10.80
2023-02-22T07:27:54.878Z,10.80
2023-02-22T07:30:25.355Z,10.80
2023-02-22T07:32:54.830Z,10.90
2023-02-22T07:35:36.698Z,10.90
2023-02-22T07:38:10.870Z,11.00
2023-02-22T07:40:39.047Z,11.10
2023-02-22T07:43:16.669Z,11.20
2023-02-22T07:45:44.885Z,11.30
2023-02-22T07:48:14.276Z,11.40
2023-02-22T07:50:42.753Z,11.40
2023-02-22T07:53:22.594Z,11.40
2023-02-22T07:55:51.227Z,11.40
2023-02-22T07:58:21.208Z,11.40
2023-02-22T08:00:48.811Z,11.40
2023-02-22T08:03:18.311Z,11.30
2023-02-22T08:05:48.424Z,11.40
2023-02-22T08:08:18.737Z,11.40
2023-02-22T08:10:47.947Z,11.40
2023-02-22T08:13:16.800Z,11.50
2023-02-22T08:15:44.597Z,11.50
2023-02-22T08:18:14.937Z,11.50
2023-02-22T08:20:44.510Z,11.50
2023-02-22T08:23:13.460Z,11.60
2023-02-22T08:25:41.435Z,11.60
2023-02-22T08:28:15.116Z,11.80
2023-02-22T08:30:46.432Z,11.90
2023-02-22T08:33:16.921Z,11.90
2023-02-22T08:35:44.778Z,12.00
2023-02-22T08:38:18.857Z,12.00
2023-02-22T08:40:48.013Z,11.90
2023-02-22T08:43:15.705Z,11.90
2023-02-22T08:45:44.437Z,11.90
2023-02-22T08:48:14.054Z,12.00
2023-02-22T08:50:42.002Z,12.10
2023-02-22T08:53:11.519Z,12.20
2023-02-22T08:55:40.188Z,12.20
2023-02-22T08:58:09.420Z,12.30
2023-02-22T09:00:39.207Z,12.50
2023-02-22T09:03:09.661Z,12.60
2023-02-22T09:05:37.231Z,12.70
2023-02-22T09:08:05.350Z,12.70
2023-02-22T09:10:34.228Z,12.80
2023-02-22T09:13:03.939Z,13.00
2023-02-22T09:15:33.445Z,13.20
2023-02-22T09:18:00.979Z,13.30
2023-02-22T09:20:29.479Z,13.30
2023-02-22T09:22:57.123Z,13.50
2023-02-22T09:25:24.556Z,13.60
2023-02-22T09:27:53.639Z,13.60
2023-02-22T09:30:35.742Z,13.80
2023-02-22T09:33:15.512Z,14.00
2023-02-22T09:35:47.236Z,14.10
2023-02-22T09:38:16.890Z,14.40
2023-02-22T09:40:54.307Z,14.50
2023-02-22T09:43:40.638Z,14.70
2023-02-22T09:46:34.653Z,14.70
2023-02-22T09:49:23.086Z,14.90
2023-02-22T09:52:06.107Z,15.10
2023-02-22T09:54:39.001Z,15.10
2023-02-22T09:57:10.746Z,15.30
2023-02-22T09:59:46.227Z,15.60
2023-02-22T10:02:30.249Z,15.90
2023-02-22T10:05:33.793Z,16.40
2023-02-22T10:08:06.004Z,16.80
2023-02-22T10:10:39.372Z,17.00
2023-02-22T10:13:23.259Z,17.10
2023-02-22T10:15:51.570Z,17.40
2023-02-22T10:18:32.795Z,17.50
2023-02-22T10:21:23.514Z,17.70
2023-02-22T10:24:10.419Z,17.30
2023-02-22T10:26:42.487Z,17.20
2023-02-22T10:29:18.975Z,17.50
2023-02-22T10:31:52.458Z,17.90
2023-02-22T10:34:26.752Z,18.20
2023-02-22T10:37:22.685Z,18.10
2023-02-22T10:39:54.973Z,18.10
2023-02-22T10:42:26.546Z,17.50
2023-02-22T10:44:53.942Z,17.20
2023-02-22T10:47:22.190Z,17.30
2023-02-22T10:49:53.532Z,17.40
2023-02-22T10:52:33.874Z,17.70
2023-02-22T10:55:14.558Z,17.70
2023-02-22T10:57:46.588Z,17.50
2023-02-22T11:00:19.884Z,17.70
2023-02-22T11:02:53.936Z,17.10
2023-02-22T11:05:38.715Z,16.80
2023-02-22T11:08:21.500Z,17.30
2023-02-22T11:10:50.555Z,17.60
2023-02-22T11:13:27.799Z,17.50
2023-02-22T11:16:03.246Z,17.40
2023-02-22T11:18:35.344Z,17.50
2023-02-22T11:21:10.212Z,17.30
2023-02-22T11:23:44.302Z,16.90
2023-02-22T11:26:16.794Z,16.50
2023-02-22T11:28:50.597Z,16.30
2023-02-22T11:31:27.990Z,16.10
2023-02-22T11:34:02.081Z,15.80
2023-02-22T11:36:40.907Z,15.90
2023-02-22T11:39:43.780Z,16.00
2023-02-22T11:42:29.152Z,16.20
2023-02-22T11:45:21.195Z,16.60
2023-02-22T11:47:52.940Z,16.80
2023-02-22T11:50:37.481Z,17.00
2023-02-22T11:53:22.058Z,16.50
2023-02-22T11:56:14.039Z,16.10
2023-02-22T11:58:48.087Z,16.10
2023-02-22T12:01:44.100Z,16.00
2023-02-22T12:04:22.452Z,16.20
2023-02-22T12:07:15.522Z,16.20
2023-02-22T12:09:48.914Z,16.20
2023-02-22T12:12:58.345Z,16.20
2023-02-22T12:15:31.627Z,16.20
2023-02-22T12:18:02.086Z,16.40
2023-02-22T12:20:43.746Z,16.10
2023-02-22T12:23:23.039Z,16.20
2023-02-22T12:26:05.287Z,16.30
2023-02-22T12:28:40.655Z,16.40
2023-02-22T12:31:33.993Z,16.70
2023-02-22T12:34:09.892Z,16.70
2023-02-22T12:36:51.775Z,16.80
2023-02-22T12:39:53.184Z,16.60
2023-02-22T12:42:30.148Z,16.40
2023-02-22T12:45:06.825Z,16.30
2023-02-22T12:47:45.619Z,16.40
2023-02-22T12:50:27.251Z,16.50
2023-02-22T12:53:15.076Z,16.30
2023-02-22T12:55:58.097Z,16.20
2023-02-22T12:58:32.310Z,16.20
2023-02-22T13:01:08.121Z,16.10
2023-02-22T13:03:38.232Z,15.90
2023-02-22T13:06:33.513Z,15.70
2023-02-22T13:09:37.372Z,15.40
2023-02-22T13:12:12.736Z,15.30
2023-02-22T13:14:54.747Z,15.40
2023-02-22T13:17:47.454Z,15.60
2023-02-22T13:20:21.946Z,15.70
2023-02-22T13:23:19.260Z,15.60
2023-02-22T13:25:58.724Z,15.50
2023-02-22T13:28:43.875Z,15.50
2023-02-22T13:31:30.374Z,15.50
2023-02-22T13:34:13.179Z,15.40
2023-02-22T13:37:08.500Z,15.40
2023-02-22T13:39:38.891Z,15.20
2023-02-22T13:42:27.962Z,15.00
2023-02-22T13:45:09.148Z,15.00
2023-02-22T13:48:00.933Z,15.00
2023-02-22T13:50:42.678Z,15.00
2023-02-22T13:53:18.207Z,14.90
2023-02-22T13:55:52.932Z,14.90
2023-02-22T13:58:21.039Z,15.00
2023-02-22T14:00:59.557Z,15.00
2023-02-22T14:03:36.399Z,14.90
2023-02-22T14:06:05.836Z,14.90
2023-02-22T14:08:33.803Z,15.00
2023-02-22T14:11:06.751Z,15.10
2023-02-22T14:14:00.907Z,15.10
2023-02-22T14:16:33.904Z,14.90
2023-02-22T14:19:13.354Z,14.90
2023-02-22T14:22:03.468Z,14.90
2023-02-22T14:24:48.042Z,14.90
2023-02-22T14:27:17.651Z,14.80
2023-02-22T14:30:00.786Z,14.90
2023-02-22T14:32:32.865Z,14.70
2023-02-22T14:35:27.357Z,14.80
2023-02-22T14:37:59.654Z,14.90
2023-02-22T14:40:32.418Z,14.70
2023-02-22T14:43:19.885Z,14.50
2023-02-22T14:45:53.002Z,14.50
2023-02-22T14:48:43.167Z,14.50
2023-02-22T14:51:23.226Z,14.50
2023-02-22T14:54:13.267Z,14.30
2023-02-22T14:56:49.179Z,14.40
2023-02-22T14:59:27.492Z,14.30
2023-02-22T15:02:13.059Z,14.30
2023-02-22T15:04:44.142Z,14.40
2023-02-22T15:07:27.868Z,14.40
2023-02-22T15:10:17.677Z,14.30
2023-02-22T15:13:08.579Z,14.20
2023-02-22T15:15:47.533Z,14.20
2023-02-22T15:18:22.050Z,14.20
2023-02-22T15:20:56.316Z,14.10
2023-02-22T15:23:41.559Z,14.10
2023-02-22T15:26:22.049Z,14.10
2023-02-22T15:28:57.713Z,14.00
2023-02-22T15:31:36.178Z,14.20
2023-02-22T15:34:28.509Z,14.10
2023-02-22T15:36:57.977Z,14.20
2023-02-22T15:39:29.382Z,14.20
2023-02-22T15:42:03.872Z,14.20
2023-02-22T15:44:36.325Z,14.20
2023-02-22T15:47:04.521Z,14.20
2023-02-22T15:49:37.017Z,14.10
2023-02-22T15:52:24.222Z,14.10
2023-02-22T15:54:52.778Z,14.10
2023-02-22T15:57:22.387Z,14.10
2023-02-22T15:59:55.887Z,14.10
2023-02-22T16:02:39.243Z,14.00
2023-02-22T16:05:13.400Z,13.90
2023-02-22T16:07:48.601Z,13.80
2023-02-22T16:10:29.832Z,13.70
2023-02-22T16:13:05.896Z,13.50
2023-02-22T16:15:34.079Z,13.40
2023-02-22T16:18:24.605Z,13.30
2023-02-22T16:21:00.100Z,13.10
2023-02-22T16:23:28.934Z,13.00
2023-02-22T16:26:19.054Z,12.90
2023-02-22T16:29:00.654Z,12.70
2023-02-22T16:31:37.570Z,12.70
2023-02-22T16:34:08.143Z,12.60
2023-02-22T16:36:44.935Z,12.50
2023-02-22T16:39:31.364Z,12.50
2023-02-22T16:42:01.623Z,12.40
2023-02-22T16:44:29.583Z,12.30
2023-02-22T16:47:00.863Z,12.20
2023-02-22T16:49:28.316Z,12.20
2023-02-22T16:52:06.632Z,12.10
2023-02-22T16:54:43.546Z,12.00
2023-02-22T16:57:19.529Z,11.90
2023-02-22T16:59:50.169Z,11.90
2023-02-22T17:02:18.019Z,11.80
2023-02-22T17:04:51.171Z,11.80
2023-02-22T17:07:29.927Z,11.70
2023-02-22T17:10:00.674Z,11.80
2023-02-22T17:12:30.235Z,11.70
2023-02-22T17:14:57.755Z,11.60
2023-02-22T17:17:26.466Z,11.60
2023-02-22T17:19:54.980Z,11.50
2023-02-22T17:22:22.852Z,11.50
2023-02-22T17:24:50.242Z,11.40
2023-02-22T17:27:17.611Z,11.30
2023-02-22T17:29:45.197Z,11.30
2023-02-22T17:32:12.893Z,11.20
2023-02-22T17:34:40.746Z,11.10
2023-02-22T17:37:08.125Z,11.10
2023-02-22T17:39:35.543Z,11.10
2023-02-22T17:42:03.010Z,11.10
2023-02-22T17:44:30.435Z,11.10
2023-02-22T17:46:57.815Z,11.10
2023-02-22T17:49:25.220Z,11.10
2023-02-22T17:51:53.209Z,11.20
2023-02-22T17:54:20.680Z,11.20
2023-02-22T17:56:48.112Z,11.20
2023-02-22T17:59:15.484Z,11.20
2023-02-22T18:01:44.021Z,11.30
2023-02-22T18:04:11.786Z,11.20
2023-02-22T18:06:40.055Z,11.30
2023-02-22T18:09:10.770Z,11.20
2023-02-22T18:11:40.022Z,11.30
2023-02-22T18:14:10.171Z,11.30
2023-02-22T18:16:38.955Z,11.30
2023-02-22T18:19:06.485Z,11.30
2023-02-22T18:21:33.960Z,11.20
2023-02-22T18:24:01.392Z,11.10
2023-02-22T18:26:29.181Z,11.10
2023-02-22T18:28:56.956Z,11.10
2023-02-22T18:31:24.473Z,11.10
2023-02-22T18:33:53.484Z,11.10
2023-02-22T18:36:23.046Z,11.00
2023-02-22T18:38:53.052Z,10.90
2023-02-22T18:41:25.390Z,10.90
2023-02-22T18:43:55.593Z,10.90
2023-02-22T18:46:24.686Z,10.70
2023-02-22T18:48:54.558Z,10.60
2023-02-22T18:51:22.319Z,10.60
2023-02-22T18:53:50.785Z,10.50
2023-02-22T18:56:22.525Z,10.50
2023-02-22T18:58:54.420Z,10.50
2023-02-22T19:01:22.450Z,10.50
2023-02-22T19:03:51.581Z,10.50
2023-02-22T19:06:21.817Z,10.50
2023-02-22T19:08:50.643Z,10.50
2023-02-22T19:11:21.869Z,10.50
2023-02-22T19:13:51.871Z,10.50
2023-02-22T19:16:22.240Z,10.50
2023-02-22T19:18:52.556Z,10.50
2023-02-22T19:21:20.974Z,10.40
2023-02-22T19:23:49.367Z,10.40
2023-02-22T19:26:24.080Z,10.40
2023-02-22T19:28:56.540Z,10.50
2023-02-22T19:31:26.475Z,10.50
2023-02-22T19:33:55.215Z,10.60
2023-02-22T19:36:23.296Z,10.70
2023-02-22T19:38:51.600Z,10.60
2023-02-22T19:41:21.892Z,10.60
2023-02-22T19:43:51.357Z,10.60
2023-02-22T19:46:24.706Z,10.70
2023-02-22T19:48:53.719Z,10.60
2023-02-22T19:51:25.609Z,10.50
2023-02-22T19:53:54.418Z,10.40
2023-02-22T19:56:27.167Z,10.40
2023-02-22T19:58:56.561Z,10.40
2023-02-22T20:01:25.150Z,10.40
2023-02-22T20:03:54.996Z,10.40
2023-02-22T20:06:27.220Z,10.40
2023-02-22T20:08:58.187Z,10.40
2023-02-22T20:11:28.053Z,10.30
2023-02-22T20:13:57.264Z,10.40
2023-02-22T20:16:26.877Z,10.40
2023-02-22T20:18:56.795Z,10.30
2023-02-22T20:21:37.469Z,10.40
2023-02-22T20:24:09.220Z,10.40
2023-02-22T20:26:38.847Z,10.50
2023-02-22T20:29:09.218Z,10.50
2023-02-22T20:31:38.018Z,10.50
2023-02-22T20:34:09.760Z,10.50
2023-02-22T20:36:40.099Z,10.50
2023-02-22T20:39:13.282Z,10.40
2023-02-22T20:41:43.069Z,10.30
2023-02-22T20:44:18.690Z,10.30
2023-02-22T20:46:46.988Z,10.20
2023-02-22T20:49:19.412Z,10.10
2023-02-22T20:51:48.399Z,10.10
2023-02-22T20:54:17.073Z,10.00
2023-02-22T20:56:45.835Z,10.00
2023-02-22T20:59:14.945Z,10.00
2023-02-22T21:01:42.590Z,9.90
2023-02-22T21:04:11.141Z,9.90
2023-02-22T21:06:39.711Z,9.90
2023-02-22T21:09:11.823Z,9.90
2023-02-22T21:11:40.137Z,9.80
2023-02-22T21:14:07.704Z,9.90
2023-02-22T21:16:37.167Z,10.00
2023-02-22T21:19:07.640Z,9.90
2023-02-22T21:21:36.042Z,9.80
2023-02-22T21:24:03.520Z,9.80
2023-02-22T21:26:33.904Z,9.70
2023-02-22T21:29:05.045Z,9.70
2023-02-22T21:31:34.088Z,9.70
2023-02-22T21:34:02.307Z,9.80
2023-02-22T21:36:32.066Z,9.80
2023-02-22T21:39:01.697Z,9.80
2023-02-22T21:41:31.088Z,9.80
2023-02-22T21:43:59.881Z,9.80
2023-02-22T21:46:29.513Z,9.80
2023-02-22T21:48:58.813Z,9.80
2023-02-22T21:51:33.839Z,9.70
2023-02-22T21:54:03.575Z,9.70
2023-02-22T21:56:35.134Z,9.80
2023-02-22T21:59:06.106Z,9.80
2023-02-22T22:01:36.659Z,9.70
2023-02-22T22:04:05.166Z,9.70
2023-02-22T22:06:34.558Z,9.70
2023-02-22T22:09:05.275Z,9.70
2023-02-22T22:11:32.839Z,9.70
2023-02-22T22:14:00.507Z,9.70
2023-02-22T22:16:33.078Z,9.70
2023-02-22T22:19:00.498Z,9.80
2023-02-22T22:21:27.978Z,9.70
2023-02-22T22:23:56.266Z,9.70
2023-02-22T22:26:25.436Z,9.70
2023-02-22T22:28:55.932Z,9.70
2023-02-22T22:31:26.127Z,9.70
2023-02-22T22:33:56.312Z,9.70
2023-02-22T22:36:26.839Z,9.70
2023-02-22T22:38:57.635Z,9.70
2023-02-22T22:41:28.177Z,9.70
2023-02-22T22:43:56.355Z,9.80
2023-02-22T22:46:23.807Z,9.80
2023-02-22T22:48:51.272Z,9.80
2023-02-22T22:51:20.638Z,9.80
2023-02-22T22:53:50.767Z,9.80
2023-02-22T22:56:21.352Z,9.80
2023-02-22T22:58:51.097Z,9.90
2023-02-22T23:01:26.902Z,9.90
2023-02-22T23:03:59.767Z,10.00
2023-02-22T23:06:33.466Z,9.90
2023-02-22T23:09:19.057Z,9.90
2023-02-22T23:11:50.938Z,9.90
2023-02-22T23:14:21.045Z,9.90
2023-02-22T23:16:50.149Z,10.00
2023-02-22T23:19:19.586Z,10.00
2023-02-22T23:21:48.637Z,10.10
2023-02-22T23:24:21.303Z,10.10
2023-02-22T23:26:48.982Z,10.10
2023-02-22T23:29:22.836Z,10.10
2023-02-22T23:31:50.915Z,10.00
2023-02-22T23:34:21.204Z,10.00
2023-02-22T23:36:50.126Z,10.00
2023-02-22T23:39:22.467Z,10.00
2023-02-22T23:41:51.244Z,10.00
2023-02-22T23:44:19.846Z,10.00
2023-02-22T23:46:48.915Z,10.00
2023-02-22T23:49:20.778Z,10.00
2023-02-22T23:51:49.038Z,10.00
2023-02-22T23:54:19.969Z,10.00
2023-02-22T23:56:56.844Z,10.00
2023-02-22T23:59:26.908Z,10.10
